^^
Your Local Weather - Clay, NY Station Historical Data
Daily Summary for January 10, 2018 Units:  Both    English   Metric
« Previous Day
Next Day »
Daily Weekly Monthly Yearly Custom
  High: Low: Average:
Temperature: 40.8 °F /  4.9 °C 38.4 °F /  3.6 °C 39.6 °F /  4.2 °C
Dew Point: 31.4 °F /  -0.3 °C 29.6 °F /  -1.3 °C 30.4 °F /  -0.9 °C
Humidity: 75% 66% 70%
Wind Speed: 6.0mph /  9.7km/h - 4.2mph /  6.8km/h
Wind Gust: 11.0mph /  17.7km/h - -
Wind- - SSE
Pressure: 30.16 in /  1021.2 hPa 30.13 in /  1020.2 hPa -
Precipitation: 0.24 in /  6.1 mm    
Historical Graphs
 
 
Tabular Data for January 10, 2018
Time Temperature Dew Point Pressure Wind Wind Speed Wind Gust Humidity Rainfall Rate (Hourly) solar
19:19 39.3 °F /  4.1 °C 30.3 °F /  -0.9 °C 30.15in /  1020.9hPa SE 5.0mph /  8km/h 11.0mph /  17.7km/h 70% 0.00in /  0mm 0 W/m2
19:26 38.7 °F /  3.7 °C 30.8 °F /  -0.7 °C 30.15in /  1020.9hPa SE 5.0mph /  8km/h 11.0mph /  17.7km/h 73% 0.00in /  0mm 0 W/m2
19:32 38.4 °F /  3.6 °C 31.2 °F /  -0.4 °C 30.16in /  1021.2hPa SE 4.0mph /  6.4km/h 4.0mph /  6.4km/h 75% 0.00in /  0mm 0 W/m2
19:50 38.4 °F /  3.6 °C 31.2 °F /  -0.4 °C 30.15in /  1020.9hPa SSE 3.0mph /  4.8km/h 4.0mph /  6.4km/h 75% 0.00in /  0mm 0 W/m2
19:56 38.5 °F /  3.6 °C 30.9 °F /  -0.6 °C 30.15in /  1020.9hPa SE 4.0mph /  6.4km/h 6.0mph /  9.7km/h 74% 0.00in /  0mm 0 W/m2
20:04 38.8 °F /  3.8 °C 31.2 °F /  -0.4 °C 30.15in /  1020.9hPa SSE 5.0mph /  8km/h 6.0mph /  9.7km/h 74% 0.00in /  0mm 0 W/m2
20:08 38.9 °F /  3.8 °C 31.0 °F /  -0.6 °C 30.16in /  1021.2hPa ESE 6.0mph /  9.7km/h 6.0mph /  9.7km/h 73% 0.00in /  0mm 0 W/m2
20:09 38.9 °F /  3.8 °C 31.0 °F /  -0.6 °C 30.16in /  1021.2hPa SSE 5.0mph /  8km/h 5.0mph /  8km/h 73% 0.00in /  0mm 0 W/m2
20:22 38.9 °F /  3.8 °C 30.6 °F /  -0.8 °C 30.15in /  1020.9hPa SE 6.0mph /  9.7km/h 7.0mph /  11.3km/h 72% 0.00in /  0mm 0 W/m2
20:28 38.9 °F /  3.8 °C 30.6 °F /  -0.8 °C 30.15in /  1020.9hPa South 5.0mph /  8km/h 7.0mph /  11.3km/h 72% 0.00in /  0mm 0 W/m2
20:34 39.0 °F /  3.9 °C 30.4 °F /  -0.9 °C 30.15in /  1020.9hPa ESE 5.0mph /  8km/h 8.0mph /  12.9km/h 71% 0.00in /  0mm 0 W/m2
20:54 39.3 °F /  4.1 °C 30.0 °F /  -1.1 °C 30.14in /  1020.5hPa SSE 6.0mph /  9.7km/h 10.0mph /  16.1km/h 69% 0.00in /  0mm 0 W/m2
21:06 39.5 °F /  4.2 °C 29.8 °F /  -1.2 °C 30.15in /  1020.9hPa SSE 5.0mph /  8km/h 7.0mph /  11.3km/h 68% 0.00in /  0mm 0 W/m2
21:12 39.7 °F /  4.3 °C 30.0 °F /  -1.1 °C 30.14in /  1020.5hPa SSE 5.0mph /  8km/h 5.0mph /  8km/h 68% 0.00in /  0mm 0 W/m2
21:18 39.4 °F /  4.1 °C 30.4 °F /  -0.9 °C 30.14in /  1020.5hPa East 3.0mph /  4.8km/h 5.0mph /  8km/h 70% 0.00in /  0mm 0 W/m2
21:24 39.2 °F /  4 °C 30.6 °F /  -0.8 °C 30.14in /  1020.5hPa SSE 2.0mph /  3.2km/h 3.0mph /  4.8km/h 71% 0.00in /  0mm 0 W/m2
21:30 39.3 °F /  4.1 °C 30.7 °F /  -0.7 °C 30.14in /  1020.5hPa SSE 3.0mph /  4.8km/h 3.0mph /  4.8km/h 71% 0.00in /  0mm 0 W/m2
21:35 39.4 °F /  4.1 °C 30.4 °F /  -0.9 °C 30.15in /  1020.9hPa SSE 3.0mph /  4.8km/h 4.0mph /  6.4km/h 70% 0.00in /  0mm 0 W/m2
21:42 39.2 °F /  4 °C 30.9 °F /  -0.6 °C 30.15in /  1020.9hPa East 3.0mph /  4.8km/h 3.0mph /  4.8km/h 72% 0.00in /  0mm 0 W/m2
21:48 38.6 °F /  3.7 °C 31.4 °F /  -0.3 °C 30.14in /  1020.5hPa SE 2.0mph /  3.2km/h 3.0mph /  4.8km/h 75% 0.00in /  0mm 0 W/m2
21:53 38.7 °F /  3.7 °C 31.1 °F /  -0.5 °C 30.13in /  1020.2hPa SSE 3.0mph /  4.8km/h 5.0mph /  8km/h 74% 0.00in /  0mm 0 W/m2
21:59 39.1 °F /  3.9 °C 31.2 °F /  -0.4 °C 30.14in /  1020.5hPa SE 4.0mph /  6.4km/h 4.0mph /  6.4km/h 73% 0.00in /  0mm 0 W/m2
22:06 39.4 °F /  4.1 °C 30.8 °F /  -0.7 °C 30.15in /  1020.9hPa SE 4.0mph /  6.4km/h 6.0mph /  9.7km/h 71% 0.00in /  0mm 0 W/m2
22:12 40.2 °F /  4.6 °C 30.8 °F /  -0.7 °C 30.15in /  1020.9hPa South 5.0mph /  8km/h 5.0mph /  8km/h 69% 0.00in /  0mm 0 W/m2
22:18 40.6 °F /  4.8 °C 30.5 °F /  -0.8 °C 30.14in /  1020.5hPa SSE 6.0mph /  9.7km/h 7.0mph /  11.3km/h 67% 0.00in /  0mm 0 W/m2
22:32 40.8 °F /  4.9 °C 30.3 °F /  -0.9 °C 30.14in /  1020.5hPa SSE 6.0mph /  9.7km/h 6.0mph /  9.7km/h 66% 0.00in /  0mm 0 W/m2
22:40 40.8 °F /  4.9 °C 30.3 °F /  -0.9 °C 30.14in /  1020.5hPa SE 6.0mph /  9.7km/h 6.0mph /  9.7km/h 66% 0.00in /  0mm 0 W/m2
22:48 40.5 °F /  4.7 °C 30.0 °F /  -1.1 °C 30.14in /  1020.5hPa SE 6.0mph /  9.7km/h 7.0mph /  11.3km/h 66% 0.00in /  0mm 0 W/m2
22:54 40.5 °F /  4.7 °C 30.0 °F /  -1.1 °C 30.14in /  1020.5hPa SSE 5.0mph /  8km/h 7.0mph /  11.3km/h 66% 0.00in /  0mm 0 W/m2
23:02 40.3 °F /  4.6 °C 29.8 °F /  -1.2 °C 30.14in /  1020.5hPa SSE 4.0mph /  6.4km/h 5.0mph /  8km/h 66% 0.00in /  0mm 0 W/m2
23:08 40.2 °F /  4.6 °C 29.7 °F /  -1.3 °C 30.14in /  1020.5hPa SSE 4.0mph /  6.4km/h 6.0mph /  9.7km/h 66% 0.00in /  0mm 0 W/m2
23:15 40.0 °F /  4.4 °C 29.6 °F /  -1.3 °C 30.13in /  1020.2hPa SSE 3.0mph /  4.8km/h 4.0mph /  6.4km/h 66% 0.00in /  0mm 0 W/m2
23:22 40.1 °F /  4.5 °C 29.6 °F /  -1.3 °C 30.14in /  1020.5hPa SSE 4.0mph /  6.4km/h 5.0mph /  8km/h 66% 0.00in /  0mm 0 W/m2
23:28 40.2 °F /  4.6 °C 29.7 °F /  -1.3 °C 30.13in /  1020.2hPa SSE 4.0mph /  6.4km/h 7.0mph /  11.3km/h 66% 0.00in /  0mm 0 W/m2
23:34 40.2 °F /  4.6 °C 29.7 °F /  -1.3 °C 30.13in /  1020.2hPa ESE 4.0mph /  6.4km/h 4.0mph /  6.4km/h 66% 0.00in /  0mm 0 W/m2
23:39 40.2 °F /  4.6 °C 30.1 °F /  -1.1 °C 30.14in /  1020.5hPa South 3.0mph /  4.8km/h 3.0mph /  4.8km/h 67% 0.00in /  0mm 0 W/m2
23:46 40.2 °F /  4.6 °C 30.1 °F /  -1.1 °C 30.14in /  1020.5hPa SSW 3.0mph /  4.8km/h 3.0mph /  4.8km/h 67% 0.00in /  0mm 0 W/m2
23:52 40.4 °F /  4.7 °C 30.3 °F /  -0.9 °C 30.14in /  1020.5hPa SSE 3.0mph /  4.8km/h 4.0mph /  6.4km/h 67% 0.00in /  0mm 0 W/m2
23:58 40.4 °F /  4.7 °C 30.3 °F /  -0.9 °C 30.14in /  1020.5hPa South 3.0mph /  4.8km/h 4.0mph /  6.4km/h 67% 0.00in /  0mm 0 W/m2
Country Meadow, Clay, NY, USA
Compliments of Weather Underground - 2 mb